createdAt,value
2018-08-13T00:00:49.646Z,17.99
2018-08-13T00:03:23.090Z,17.96
2018-08-13T00:05:56.509Z,17.95
2018-08-13T00:08:29.923Z,17.93
2018-08-13T00:11:03.339Z,17.92
2018-08-13T00:13:36.712Z,17.88
2018-08-13T00:16:10.101Z,17.84
2018-08-13T00:18:43.509Z,17.82
2018-08-13T00:21:16.885Z,17.79
2018-08-13T00:23:50.291Z,17.82
2018-08-13T00:26:23.762Z,17.80
2018-08-13T00:28:57.202Z,17.75
2018-08-13T00:31:30.568Z,17.71
2018-08-13T00:34:04.013Z,17.67
2018-08-13T00:36:40.375Z,17.55
2018-08-13T00:39:14.295Z,17.48
2018-08-13T00:41:47.751Z,17.44
2018-08-13T00:44:21.200Z,17.40
2018-08-13T00:46:54.675Z,17.35
2018-08-13T00:49:28.078Z,17.31
2018-08-13T00:52:01.487Z,17.26
2018-08-13T00:54:34.918Z,17.18
2018-08-13T00:57:08.354Z,17.13
2018-08-13T00:59:41.780Z,17.04
2018-08-13T01:02:15.173Z,16.98
2018-08-13T01:04:48.599Z,16.95
2018-08-13T01:07:21.975Z,16.91
2018-08-13T01:09:55.383Z,16.84
2018-08-13T01:12:28.770Z,16.76
2018-08-13T01:15:02.162Z,16.71
2018-08-13T01:17:35.578Z,16.66
2018-08-13T01:20:10.862Z,16.62
2018-08-13T01:22:44.415Z,16.60
2018-08-13T01:25:18.962Z,16.54
2018-08-13T01:27:55.194Z,16.49
2018-08-13T01:30:28.618Z,16.45
2018-08-13T01:33:02.011Z,16.39
2018-08-13T01:35:35.410Z,16.33
2018-08-13T01:38:08.813Z,16.22
2018-08-13T01:40:42.244Z,16.17
2018-08-13T01:43:15.653Z,16.13
2018-08-13T01:45:49.083Z,16.08
2018-08-13T01:48:22.467Z,16.01
2018-08-13T01:50:55.852Z,15.95
2018-08-13T01:53:29.212Z,15.91
2018-08-13T01:56:02.627Z,15.88
2018-08-13T01:58:35.996Z,15.80
2018-08-13T02:01:09.467Z,15.75
2018-08-13T02:03:42.853Z,15.71
2018-08-13T02:06:16.271Z,15.72
2018-08-13T02:08:49.622Z,15.68
2018-08-13T02:11:23.040Z,15.62
2018-08-13T02:13:56.413Z,15.55
2018-08-13T02:16:29.857Z,15.49
2018-08-13T02:19:03.227Z,15.42
2018-08-13T02:21:36.639Z,15.35
2018-08-13T02:24:09.988Z,15.37
2018-08-13T02:26:43.378Z,15.39
2018-08-13T02:29:16.803Z,15.40
2018-08-13T02:31:50.488Z,15.35
2018-08-13T02:34:24.031Z,15.30
2018-08-13T02:36:57.399Z,15.27
2018-08-13T02:39:30.845Z,15.20
2018-08-13T02:42:04.263Z,15.19
2018-08-13T02:44:37.637Z,15.15
2018-08-13T02:47:11.065Z,15.12
2018-08-13T02:49:44.512Z,15.08
2018-08-13T02:52:17.916Z,15.06
2018-08-13T02:54:51.322Z,15.01
2018-08-13T02:57:24.705Z,14.98
2018-08-13T02:59:58.131Z,14.96
2018-08-13T03:02:31.545Z,14.92
2018-08-13T03:05:06.883Z,14.96
2018-08-13T03:07:40.692Z,14.92
2018-08-13T03:10:14.327Z,14.93
2018-08-13T03:12:47.709Z,14.93
2018-08-13T03:15:21.116Z,14.89
2018-08-13T03:17:54.497Z,14.90
2018-08-13T03:20:27.923Z,14.93
2018-08-13T03:23:01.283Z,14.90
2018-08-13T03:25:34.701Z,14.89
2018-08-13T03:28:08.060Z,14.87
2018-08-13T03:30:41.451Z,14.83
2018-08-13T03:33:14.889Z,14.79
2018-08-13T03:35:48.302Z,14.76
2018-08-13T03:38:21.687Z,14.75
2018-08-13T03:40:55.081Z,14.75
2018-08-13T03:43:28.453Z,14.74
2018-08-13T03:46:01.882Z,14.73
2018-08-13T03:48:35.251Z,14.71
2018-08-13T03:51:08.657Z,14.68
2018-08-13T03:53:42.118Z,14.67
2018-08-13T03:56:15.495Z,14.70
2018-08-13T03:58:48.867Z,14.70
2018-08-13T04:01:22.262Z,14.72
2018-08-13T04:03:55.826Z,14.74
2018-08-13T04:06:29.287Z,14.74
2018-08-13T04:09:02.672Z,14.73
2018-08-13T04:11:36.280Z,14.74
2018-08-13T04:14:09.903Z,14.73
2018-08-13T04:16:47.428Z,14.73
2018-08-13T04:19:20.785Z,14.73
2018-08-13T04:21:54.219Z,14.73
2018-08-13T04:24:27.606Z,14.73
2018-08-13T04:27:01.097Z,14.73
2018-08-13T04:29:34.458Z,14.76
2018-08-13T04:32:08.011Z,14.72
2018-08-13T04:34:41.374Z,14.73
2018-08-13T04:37:14.845Z,14.74
2018-08-13T04:39:48.672Z,14.74
2018-08-13T04:42:22.065Z,14.76
2018-08-13T04:44:55.450Z,14.82
2018-08-13T04:47:29.010Z,14.86
2018-08-13T04:50:02.426Z,14.90
2018-08-13T04:52:36.765Z,14.99
2018-08-13T04:55:10.710Z,15.04
2018-08-13T04:57:44.251Z,15.14
2018-08-13T05:00:17.776Z,15.17
2018-08-13T05:02:51.243Z,15.25
2018-08-13T05:05:24.628Z,15.36
2018-08-13T05:07:58.023Z,15.55
2018-08-13T05:10:31.485Z,15.69
2018-08-13T05:13:04.904Z,15.85
2018-08-13T05:15:38.269Z,16.04
2018-08-13T05:18:11.715Z,16.19
2018-08-13T05:20:45.152Z,16.42
2018-08-13T05:23:18.555Z,16.63
2018-08-13T05:25:51.984Z,16.86
2018-08-13T05:28:25.414Z,17.08
2018-08-13T05:30:58.828Z,17.30
2018-08-13T05:33:32.379Z,17.45
2018-08-13T05:36:05.836Z,17.50
2018-08-13T05:38:39.254Z,17.49
2018-08-13T05:41:12.687Z,17.49
2018-08-13T05:43:46.114Z,17.60
2018-08-13T05:46:19.512Z,17.71
2018-08-13T05:48:53.128Z,17.84
2018-08-13T05:51:26.502Z,18.06
2018-08-13T05:53:59.996Z,18.32
2018-08-13T05:56:33.412Z,18.51
2018-08-13T05:59:06.811Z,18.71
2018-08-13T06:01:40.230Z,18.89
2018-08-13T06:04:13.634Z,19.01
2018-08-13T06:06:47.712Z,19.17
2018-08-13T06:09:21.111Z,19.24
2018-08-13T06:11:54.492Z,19.24
2018-08-13T06:14:27.897Z,19.36
2018-08-13T06:17:01.320Z,19.49
2018-08-13T06:19:34.747Z,19.63
2018-08-13T06:22:08.156Z,19.70
2018-08-13T06:24:41.541Z,19.86
2018-08-13T06:27:14.966Z,19.97
2018-08-13T06:29:48.398Z,20.17
2018-08-13T06:32:21.829Z,20.26
2018-08-13T06:34:55.256Z,20.21
2018-08-13T06:37:28.643Z,20.24
2018-08-13T06:40:02.107Z,20.35
2018-08-13T06:42:35.523Z,20.56
2018-08-13T06:45:09.887Z,20.69
2018-08-13T06:47:43.327Z,20.84
2018-08-13T06:50:16.720Z,21.07
2018-08-13T06:52:50.112Z,21.20
2018-08-13T06:55:23.501Z,21.33
2018-08-13T06:57:56.871Z,21.46
2018-08-13T07:00:30.387Z,21.59
2018-08-13T07:03:03.804Z,21.82
2018-08-13T07:05:37.298Z,22.08
2018-08-13T07:08:10.664Z,22.30
2018-08-13T07:10:44.088Z,22.43
2018-08-13T07:13:17.487Z,22.56
2018-08-13T07:15:50.982Z,22.65
2018-08-13T07:18:24.351Z,22.83
2018-08-13T07:20:57.750Z,22.91
2018-08-13T07:23:31.159Z,23.10
2018-08-13T07:26:04.638Z,23.41
2018-08-13T07:28:38.055Z,23.74
2018-08-13T07:31:11.490Z,23.99
2018-08-13T07:33:44.943Z,24.18
2018-08-13T07:36:18.832Z,24.39
2018-08-13T07:38:52.485Z,24.55
2018-08-13T07:41:25.908Z,24.75
2018-08-13T07:43:59.332Z,24.88
2018-08-13T07:46:32.767Z,24.94
2018-08-13T07:49:06.158Z,25.06
2018-08-13T07:51:39.588Z,25.33
2018-08-13T07:54:12.987Z,25.66
2018-08-13T07:56:46.399Z,26.23
2018-08-13T07:59:19.858Z,26.97
2018-08-13T08:01:53.280Z,27.32
2018-08-13T08:04:26.679Z,27.34
2018-08-13T08:07:00.661Z,27.18
2018-08-13T08:09:34.055Z,27.30
2018-08-13T08:12:07.509Z,27.30
2018-08-13T08:14:40.938Z,27.44
2018-08-13T08:17:14.345Z,27.53
2018-08-13T08:19:47.799Z,27.69
2018-08-13T08:22:21.264Z,27.73
2018-08-13T08:24:54.690Z,27.84
2018-08-13T08:27:28.138Z,28.03
2018-08-13T08:30:01.556Z,28.24
2018-08-13T08:32:35.347Z,28.46
2018-08-13T08:35:11.078Z,28.51
2018-08-13T08:37:44.762Z,28.59
2018-08-13T08:40:19.937Z,28.69
2018-08-13T08:42:53.322Z,28.74
2018-08-13T08:45:27.666Z,28.78
2018-08-13T08:48:01.067Z,28.60
2018-08-13T08:50:34.479Z,28.67
2018-08-13T08:53:07.915Z,28.99
2018-08-13T08:55:41.340Z,29.49
2018-08-13T08:58:14.756Z,29.90
2018-08-13T09:00:48.263Z,30.47
2018-08-13T09:03:21.683Z,31.25
2018-08-13T09:05:55.131Z,31.77
2018-08-13T09:08:28.520Z,31.62
2018-08-13T09:11:01.932Z,31.13
2018-08-13T09:13:35.347Z,30.90
2018-08-13T09:16:08.771Z,30.80
2018-08-13T09:18:53.478Z,30.74
2018-08-13T09:21:30.439Z,30.78
2018-08-13T09:24:15.936Z,30.94
2018-08-13T09:27:00.599Z,31.16
2018-08-13T09:29:45.272Z,31.32
2018-08-13T09:32:33.023Z,32.39
2018-08-13T09:35:23.812Z,33.11
2018-08-13T09:37:57.916Z,33.01
2018-08-13T09:40:32.430Z,32.57
2018-08-13T09:43:05.827Z,32.12
2018-08-13T09:45:39.230Z,31.37
2018-08-13T09:48:12.746Z,30.89
2018-08-13T09:50:46.076Z,30.64
2018-08-13T09:53:19.491Z,30.53
2018-08-13T09:55:52.907Z,30.62
2018-08-13T09:58:26.312Z,30.83
2018-08-13T10:01:05.064Z,30.82
2018-08-13T10:03:39.066Z,30.52
2018-08-13T10:06:12.489Z,30.28
2018-08-13T10:08:45.999Z,30.06
2018-08-13T10:11:19.374Z,30.08
2018-08-13T10:13:52.767Z,30.47
2018-08-13T10:16:26.143Z,30.70
2018-08-13T10:18:59.593Z,30.70
2018-08-13T10:21:32.968Z,30.74
2018-08-13T10:24:06.405Z,30.41
2018-08-13T10:26:39.843Z,30.53
2018-08-13T10:29:13.247Z,30.35
2018-08-13T10:31:46.611Z,30.33
2018-08-13T10:34:20.031Z,29.92
2018-08-13T10:36:53.424Z,29.88
2018-08-13T10:39:26.849Z,29.77
2018-08-13T10:42:00.287Z,29.82
2018-08-13T10:44:33.705Z,29.83
2018-08-13T10:47:07.092Z,29.65
2018-08-13T10:49:40.543Z,29.76
2018-08-13T10:52:13.883Z,30.04
2018-08-13T10:54:48.123Z,29.95
2018-08-13T10:57:21.572Z,30.01
2018-08-13T10:59:54.989Z,29.86
2018-08-13T11:02:28.435Z,29.64
2018-08-13T11:05:01.858Z,29.47
2018-08-13T11:07:35.371Z,29.59
2018-08-13T11:10:10.805Z,29.43
2018-08-13T11:12:44.203Z,29.32
2018-08-13T11:15:19.346Z,29.16
2018-08-13T11:17:52.752Z,28.77
2018-08-13T11:20:26.234Z,28.50
2018-08-13T11:22:59.618Z,28.42
2018-08-13T11:25:33.052Z,28.29
2018-08-13T11:28:06.679Z,28.13
2018-08-13T11:30:40.122Z,27.95
2018-08-13T11:33:13.495Z,27.79
2018-08-13T11:35:46.949Z,27.77
2018-08-13T11:38:20.439Z,27.75
2018-08-13T11:40:53.849Z,27.70
2018-08-13T11:43:27.231Z,27.73
2018-08-13T11:46:00.702Z,27.72
2018-08-13T11:48:34.066Z,27.72
2018-08-13T11:51:07.510Z,27.66
2018-08-13T11:53:41.039Z,27.68
2018-08-13T11:56:16.756Z,27.66
2018-08-13T11:58:50.153Z,27.59
2018-08-13T12:01:23.589Z,27.52
2018-08-13T12:03:56.985Z,27.36
2018-08-13T12:06:30.367Z,27.26
2018-08-13T12:09:04.035Z,27.14
2018-08-13T12:11:37.403Z,27.26
2018-08-13T12:14:10.876Z,27.26
2018-08-13T12:16:44.220Z,27.28
2018-08-13T12:19:17.629Z,27.41
2018-08-13T12:21:51.020Z,27.38
2018-08-13T12:24:24.407Z,27.15
2018-08-13T12:26:57.810Z,27.05
2018-08-13T12:29:31.200Z,27.00
2018-08-13T12:32:04.628Z,26.97
2018-08-13T12:34:38.061Z,26.87
2018-08-13T12:37:11.463Z,26.79
2018-08-13T12:39:44.822Z,26.31
2018-08-13T12:42:18.237Z,26.23
2018-08-13T12:44:51.599Z,26.19
2018-08-13T12:47:26.004Z,26.00
2018-08-13T12:49:59.413Z,25.90
2018-08-13T12:52:32.864Z,25.76
2018-08-13T12:55:07.997Z,25.73
2018-08-13T12:57:41.738Z,25.68
2018-08-13T13:00:16.290Z,25.58
2018-08-13T13:02:49.701Z,25.48
2018-08-13T13:05:23.079Z,25.41
2018-08-13T13:07:56.477Z,25.37
2018-08-13T13:10:29.884Z,25.41
2018-08-13T13:13:03.312Z,25.32
2018-08-13T13:15:36.667Z,25.14
2018-08-13T13:18:10.107Z,25.03
2018-08-13T13:20:43.473Z,24.97
2018-08-13T13:23:16.905Z,24.96
2018-08-13T13:25:50.323Z,24.96
2018-08-13T13:28:23.741Z,24.90
2018-08-13T13:30:57.134Z,24.81
2018-08-13T13:33:30.615Z,24.82
2018-08-13T13:36:03.984Z,24.84
2018-08-13T13:38:37.431Z,24.75
2018-08-13T13:41:10.807Z,24.61
2018-08-13T13:43:44.255Z,24.49
2018-08-13T13:46:18.451Z,24.37
2018-08-13T13:48:52.261Z,24.21
2018-08-13T13:51:25.694Z,24.19
2018-08-13T13:53:59.081Z,24.34
2018-08-13T13:56:32.516Z,24.36
2018-08-13T13:59:06.031Z,24.48
2018-08-13T14:01:39.441Z,24.60
2018-08-13T14:04:12.812Z,24.59
2018-08-13T14:06:46.253Z,24.69
2018-08-13T14:09:19.621Z,24.83
2018-08-13T14:11:53.041Z,24.76
2018-08-13T14:14:26.421Z,24.79
2018-08-13T14:16:59.844Z,24.80
2018-08-13T14:19:33.259Z,24.73
2018-08-13T14:22:06.777Z,24.70
2018-08-13T14:24:40.375Z,24.80
2018-08-13T14:27:13.853Z,24.84
2018-08-13T14:29:47.803Z,24.98
2018-08-13T14:32:21.200Z,25.12
2018-08-13T14:34:54.589Z,25.30
2018-08-13T14:37:27.989Z,25.32
2018-08-13T14:40:01.438Z,25.37
2018-08-13T14:42:34.862Z,25.29
2018-08-13T14:45:10.093Z,25.30
2018-08-13T14:47:44.945Z,25.39
2018-08-13T14:50:18.336Z,25.48
2018-08-13T14:52:51.742Z,25.43
2018-08-13T14:55:25.113Z,25.44
2018-08-13T14:57:58.533Z,25.49
2018-08-13T15:00:36.473Z,25.44
2018-08-13T15:03:11.774Z,25.46
2018-08-13T15:05:45.192Z,25.40
2018-08-13T15:08:18.575Z,25.42
2018-08-13T15:10:51.935Z,25.41
2018-08-13T15:13:25.421Z,25.38
2018-08-13T15:15:58.799Z,25.34
2018-08-13T15:18:32.497Z,25.39
2018-08-13T15:21:05.877Z,25.45
2018-08-13T15:23:39.284Z,25.53
2018-08-13T15:26:12.678Z,25.57
2018-08-13T15:28:46.108Z,25.49
2018-08-13T15:31:19.490Z,25.43
2018-08-13T15:33:53.012Z,25.35
2018-08-13T15:36:26.433Z,25.35
2018-08-13T15:38:59.836Z,25.38
2018-08-13T15:41:33.222Z,25.16
2018-08-13T15:44:06.667Z,25.20
2018-08-13T15:46:40.063Z,25.25
2018-08-13T15:49:13.477Z,25.32
2018-08-13T15:51:46.896Z,25.43
2018-08-13T15:54:20.303Z,25.46
2018-08-13T15:56:53.660Z,25.48
2018-08-13T15:59:27.069Z,25.44
2018-08-13T16:02:00.459Z,25.38
2018-08-13T16:04:33.904Z,25.46
2018-08-13T16:07:09.628Z,25.51
2018-08-13T16:09:43.024Z,25.54
2018-08-13T16:12:16.433Z,25.52
2018-08-13T16:14:49.968Z,25.52
2018-08-13T16:17:23.345Z,25.47
2018-08-13T16:19:56.810Z,25.40
2018-08-13T16:22:32.383Z,25.22
2018-08-13T16:25:06.289Z,25.15
2018-08-13T16:27:39.915Z,25.11
2018-08-13T16:30:30.056Z,25.12
2018-08-13T16:33:03.460Z,25.22
2018-08-13T16:35:36.880Z,25.15
2018-08-13T16:38:10.275Z,25.16
2018-08-13T16:40:43.658Z,25.16
2018-08-13T16:43:17.111Z,25.15
2018-08-13T16:45:50.527Z,25.18
2018-08-13T16:48:23.938Z,25.10
2018-08-13T16:50:57.366Z,25.21
2018-08-13T16:53:30.790Z,25.20
2018-08-13T16:56:04.274Z,25.19
2018-08-13T16:58:37.671Z,25.09
2018-08-13T17:01:11.089Z,25.04
2018-08-13T17:03:44.501Z,24.97
2018-08-13T17:06:18.009Z,24.95
2018-08-13T17:08:51.425Z,24.81
2018-08-13T17:11:29.076Z,24.85
2018-08-13T17:14:03.050Z,24.84
2018-08-13T17:16:36.685Z,24.80
2018-08-13T17:19:10.524Z,24.75
2018-08-13T17:21:43.924Z,24.66
2018-08-13T17:24:17.316Z,24.58
2018-08-13T17:26:50.887Z,24.52
2018-08-13T17:29:24.304Z,24.45
2018-08-13T17:31:57.699Z,24.39
2018-08-13T17:34:31.374Z,24.37
2018-08-13T17:37:05.342Z,24.38
2018-08-13T17:39:39.266Z,24.40
2018-08-13T17:42:13.183Z,24.37
2018-08-13T17:44:46.600Z,24.27
2018-08-13T17:47:20.095Z,24.23
2018-08-13T17:49:54.163Z,24.26
2018-08-13T17:52:27.542Z,24.27
2018-08-13T17:55:01.249Z,24.26
2018-08-13T17:57:34.688Z,24.26
2018-08-13T18:00:11.740Z,24.22
2018-08-13T18:02:45.218Z,24.23
2018-08-13T18:05:20.724Z,24.11
2018-08-13T18:07:54.708Z,24.06
2018-08-13T18:10:31.150Z,24.04
2018-08-13T18:13:07.762Z,24.04
2018-08-13T18:15:41.218Z,23.93
2018-08-13T18:18:15.042Z,23.88
2018-08-13T18:20:48.481Z,23.79
2018-08-13T18:23:21.845Z,23.68
2018-08-13T18:25:55.807Z,23.59
2018-08-13T18:28:29.481Z,23.51
2018-08-13T18:31:03.111Z,23.48
2018-08-13T18:33:36.499Z,23.48
2018-08-13T18:36:10.390Z,23.44
2018-08-13T18:38:43.843Z,23.35
2018-08-13T18:41:17.321Z,23.31
2018-08-13T18:43:51.064Z,23.27
2018-08-13T18:46:24.531Z,23.25
2018-08-13T18:48:57.900Z,23.19
2018-08-13T18:51:31.461Z,23.17
2018-08-13T18:54:04.901Z,23.16
2018-08-13T18:56:38.423Z,23.13
2018-08-13T18:59:11.903Z,23.10
2018-08-13T19:01:45.367Z,23.12
2018-08-13T19:04:18.794Z,23.10
2018-08-13T19:06:52.193Z,23.08
2018-08-13T19:09:25.624Z,23.06
2018-08-13T19:11:59.078Z,23.03
2018-08-13T19:14:32.529Z,22.95
2018-08-13T19:17:06.378Z,22.84
2018-08-13T19:19:39.797Z,22.74
2018-08-13T19:22:13.208Z,22.83
2018-08-13T19:24:46.627Z,22.71
2018-08-13T19:27:20.109Z,22.63
2018-08-13T19:29:53.561Z,22.52
2018-08-13T19:32:26.992Z,22.53
2018-08-13T19:35:00.521Z,22.41
2018-08-13T19:37:33.955Z,22.39
2018-08-13T19:40:09.789Z,22.41
2018-08-13T19:42:44.472Z,22.36
2018-08-13T19:45:18.693Z,22.30
2018-08-13T19:47:52.710Z,22.30
2018-08-13T19:50:26.084Z,22.24
2018-08-13T19:53:00.178Z,22.27
2018-08-13T19:55:33.592Z,22.24
2018-08-13T19:58:07.284Z,22.18
2018-08-13T20:00:40.693Z,22.09
2018-08-13T20:03:14.399Z,22.08
2018-08-13T20:05:47.805Z,22.02
2018-08-13T20:08:22.861Z,21.95
2018-08-13T20:10:56.815Z,21.93
2018-08-13T20:13:30.505Z,21.90
2018-08-13T20:16:04.649Z,21.84
2018-08-13T20:18:38.075Z,21.83
2018-08-13T20:21:11.508Z,21.78
2018-08-13T20:23:44.910Z,21.75
2018-08-13T20:26:18.340Z,21.69
2018-08-13T20:28:51.723Z,21.61
2018-08-13T20:31:25.183Z,21.61
2018-08-13T20:33:58.580Z,21.47
2018-08-13T20:36:31.992Z,21.47
2018-08-13T20:39:09.225Z,21.49
2018-08-13T20:41:42.762Z,21.46
2018-08-13T20:44:16.151Z,21.48
2018-08-13T20:46:49.552Z,21.37
2018-08-13T20:49:23.022Z,21.35
2018-08-13T20:51:56.412Z,21.34
2018-08-13T20:54:29.795Z,21.26
2018-08-13T20:57:03.236Z,21.69
2018-08-13T20:59:36.655Z,21.71
2018-08-13T21:02:10.129Z,21.65
2018-08-13T21:04:43.514Z,21.63
2018-08-13T21:07:16.953Z,21.55
2018-08-13T21:09:50.349Z,21.57
2018-08-13T21:12:23.774Z,21.50
2018-08-13T21:14:57.206Z,21.49
2018-08-13T21:17:30.626Z,21.41
2018-08-13T21:20:04.366Z,21.39
2018-08-13T21:22:38.358Z,21.32
2018-08-13T21:25:13.256Z,21.29
2018-08-13T21:27:47.019Z,21.25
2018-08-13T21:30:20.375Z,21.27
2018-08-13T21:32:53.781Z,21.19
2018-08-13T21:35:27.183Z,21.19
2018-08-13T21:38:00.579Z,21.24
2018-08-13T21:40:34.004Z,21.23
2018-08-13T21:43:07.429Z,21.21
2018-08-13T21:45:40.829Z,21.19
2018-08-13T21:48:14.262Z,21.17
2018-08-13T21:50:47.649Z,21.07
2018-08-13T21:53:21.121Z,21.08
2018-08-13T21:55:54.534Z,21.06
2018-08-13T21:58:27.956Z,21.02
2018-08-13T22:01:06.765Z,20.97
2018-08-13T22:03:40.149Z,20.95
2018-08-13T22:06:13.515Z,20.94
2018-08-13T22:08:46.970Z,20.91
2018-08-13T22:11:20.374Z,20.87
2018-08-13T22:13:53.828Z,20.87
2018-08-13T22:16:27.161Z,20.85
2018-08-13T22:19:00.661Z,20.82
2018-08-13T22:21:34.072Z,20.78
2018-08-13T22:24:18.770Z,20.71
2018-08-13T22:26:52.173Z,20.75
2018-08-13T22:29:25.595Z,20.76
2018-08-13T22:31:59.015Z,20.78
2018-08-13T22:34:32.383Z,20.76
2018-08-13T22:37:05.828Z,20.75
2018-08-13T22:39:39.458Z,20.69
2018-08-13T22:42:12.881Z,20.70
2018-08-13T22:44:46.273Z,20.65
2018-08-13T22:47:19.637Z,20.65
2018-08-13T22:49:53.060Z,20.61
2018-08-13T22:52:26.463Z,20.50
2018-08-13T22:54:59.882Z,20.47
2018-08-13T22:57:33.292Z,20.42
2018-08-13T23:00:10.059Z,20.41
2018-08-13T23:02:44.283Z,20.40
2018-08-13T23:05:23.163Z,20.33
2018-08-13T23:07:56.606Z,20.35
2018-08-13T23:10:30.022Z,20.29
2018-08-13T23:13:03.477Z,20.28
2018-08-13T23:15:36.874Z,20.26
2018-08-13T23:18:10.293Z,20.20
2018-08-13T23:20:43.777Z,20.14
2018-08-13T23:23:17.224Z,20.13
2018-08-13T23:25:50.660Z,20.11
2018-08-13T23:28:24.063Z,20.08
2018-08-13T23:30:57.490Z,20.03
2018-08-13T23:33:30.912Z,20.03
2018-08-13T23:36:04.342Z,20.02
2018-08-13T23:38:37.724Z,19.98
2018-08-13T23:41:11.165Z,19.99
2018-08-13T23:43:44.557Z,19.93
2018-08-13T23:46:17.972Z,19.91
2018-08-13T23:48:51.402Z,19.95
2018-08-13T23:51:24.825Z,19.88
2018-08-13T23:53:58.232Z,19.93
2018-08-13T23:56:31.654Z,19.87
2018-08-13T23:59:05.064Z,19.84
